Cross Village, MI (49723)

8:40 AM EDT on September 03, 2015 (GMT -0400)
Creekside, 4 Miles WSW Bliss | | Change Station
CLOSE
Current Station
Personal Weather Station
Location: Bliss Township, MI
Elevation: 708 ft
Nearby Weather Stations

Elev 708 ft 45.65 °N, 84.92 °W | Updated 17 seconds ago

Rain
Rain
62.7 °F
Feels Like 62.7 °F
N
4.0
Wind Variable Wind from East
Gusts 10.0 mph

Today
High -- | Low -- °F
--% Chance of Precip.
Yesterday
High -- | Low -- °F
Precip. -- in
7:03 AM 8:14 PM
Waning Gibbous, 70% visible
Pressure 29.99 in
Visibility 3.0 miles
Clouds Mostly Cloudy 5000 ft
Overcast 7000 ft
Dew Point 62 °F
Humidity 97%
Rainfall 0.51 in
Snow Depth Not available.
UV 0 out of 12
Pollen 10.00 out of 12
Air Quality Not available.
Flu Activity Not available.
SPECI KPLN 031225Z AUTO 00000KT 3SM +RA BR BKN050 OVC070 18/18 A2999 RMK AO2 LTG DSNT SE P0018 T01830178
Pressure 29.99 in
Visibility 3.0 miles
Clouds Mostly Cloudy 5000 ft
Overcast 7000 ft
Dew Point 62 °F
Humidity 97%
Rainfall 0.51 in
Snow Depth Not available.
UV 0 out of 12
Pollen 10.00 out of 12
Air Quality Not available.
Flu Activity Not available.
SPECI KPLN 031225Z AUTO 00000KT 3SM +RA BR BKN050 OVC070 18/18 A2999 RMK AO2 LTG DSNT SE P0018 T01830178
Nowcast | as of 8:00 am EDT on September 3, 2015

At 9 am...showers and thunderstorms. Locally heavy rainfall possible. Temperature 70. Light winds. At 11 am...showers and thunderstorms. Locally heavy rainfall possible. Temperature 74. Light winds. At 1 PM...showers and thunderstorms. Locally heavy rainfall possible. Temperature 80. East winds 5 mph. At 3 PM...showers and thunderstorms. Locally heavy rainfall possible. Temperature 82. Northeast winds 6 mph.

×

10-Day Weather Forecast

×

Almanac

Astronomy

Sep. 03, 2015 Rise Set
Actual Time
Civil Twilight
Nautical Twilight
Astronomical Twilight
Moon
Length of Visible Light
Length of Day
Tomorrow will be .
, % of the Moon is Illuminated

Today's Extremes

State Highs State Lows

Community

WunderPhotos

Upload Photos

1,851,946 photos uploaded!

WunderBlogs® & News

Nearby

Air Quality

  Air Quality AQ Index Pollutant
Not available.

Snow Depth

Station Depth Elevation

Earthquake Activity

City Distance Mag. Time & Date
Minimum magnitude displayed is 2.5.

Coastal Water Temperatures

Place Temperature

Stations

Nearby Weather Stations

Station Location Temp. Windchill Dew Point Humidity Wind Precip. Elev Updated Type